sensor_id;sensor_type;location;lat;lon;timestamp;pressure;altitude;pressure_sealevel;temperature;humidity
46506;BME280;32220;49.808;9.968;2023-11-19T09:50:20;98487.16;;;13.27;100.00
46506;BME280;32220;49.808;9.968;2023-11-19T09:52:48;98499.38;;;13.95;100.00
46506;BME280;32220;49.808;9.968;2023-11-19T09:55:17;98461.28;;;14.68;100.00
46506;BME280;32220;49.808;9.968;2023-11-19T09:57:45;98491.34;;;15.31;100.00
46506;BME280;32220;49.808;9.968;2023-11-19T10:00:15;98488.13;;;15.68;100.00
46506;BME280;32220;49.808;9.968;2023-11-19T10:02:45;98475.50;;;15.79;100.00
46506;BME280;32220;49.808;9.968;2023-11-19T10:05:13;98480.19;;;16.06;100.00
46506;BME280;32220;49.808;9.968;2023-11-19T10:07:43;98492.41;;;16.28;100.00
46506;BME280;32220;49.808;9.968;2023-11-19T10:10:14;98449.94;;;15.96;100.00
46506;BME280;32220;49.808;9.968;2023-11-19T10:12:44;98445.88;;;16.02;100.00
46506;BME280;32220;49.808;9.968;2023-11-19T10:15:19;98494.66;;;16.23;100.00
46506;BME280;32220;49.808;9.968;2023-11-19T10:17:47;98483.97;;;16.04;100.00
46506;BME280;32220;49.808;9.968;2023-11-19T10:20:15;98499.56;;;15.99;100.00
46506;BME280;32220;49.808;9.968;2023-11-19T10:22:44;98498.00;;;15.87;100.00
46506;BME280;32220;49.808;9.968;2023-11-19T10:25:33;98500.78;;;15.75;100.00
46506;BME280;32220;49.808;9.968;2023-11-19T10:28:01;98495.09;;;15.59;100.00
46506;BME280;32220;49.808;9.968;2023-11-19T10:30:30;98484.38;;;15.50;100.00
46506;BME280;32220;49.808;9.968;2023-11-19T10:33:06;98503.78;;;15.52;100.00
46506;BME280;32220;49.808;9.968;2023-11-19T10:35:35;98501.22;;;15.40;100.00
46506;BME280;32220;49.808;9.968;2023-11-19T10:38:13;98501.06;;;15.32;100.00
46506;BME280;32220;49.808;9.968;2023-11-19T10:40:43;98491.03;;;15.25;100.00
46506;BME280;32220;49.808;9.968;2023-11-19T10:43:11;98505.31;;;15.44;100.00
46506;BME280;32220;49.808;9.968;2023-11-19T10:45:40;98488.50;;;17.82;98.88
46506;BME280;32220;49.808;9.968;2023-11-19T10:48:08;98517.88;;;21.86;79.98
46506;BME280;32220;49.808;9.968;2023-11-19T10:50:36;98533.34;;;21.93;69.67
46506;BME280;32220;49.808;9.968;2023-11-19T10:53:08;98516.41;;;20.39;69.80
46506;BME280;32220;49.808;9.968;2023-11-19T10:55:37;98513.59;;;19.31;71.43
46506;BME280;32220;49.808;9.968;2023-11-19T10:58:06;98518.28;;;18.59;75.34
46506;BME280;32220;49.808;9.968;2023-11-19T11:00:38;98499.00;;;17.93;77.56
46506;BME280;32220;49.808;9.968;2023-11-19T11:03:10;98505.53;;;17.53;80.26
46506;BME280;32220;49.808;9.968;2023-11-19T11:05:38;98476.81;;;17.09;83.15
46506;BME280;32220;49.808;9.968;2023-11-19T11:08:08;98445.41;;;16.55;84.43
46506;BME280;32220;49.808;9.968;2023-11-19T11:10:44;98476.66;;;16.54;85.77
46506;BME280;32220;49.808;9.968;2023-11-19T11:13:16;98461.75;;;16.23;86.73
46506;BME280;32220;49.808;9.968;2023-11-19T11:15:46;98464.44;;;16.03;88.25
46506;BME280;32220;49.808;9.968;2023-11-19T11:18:15;98449.59;;;15.70;88.92
46506;BME280;32220;49.808;9.968;2023-11-19T11:20:44;98488.41;;;15.84;90.74
46506;BME280;32220;49.808;9.968;2023-11-19T11:23:29;98465.09;;;15.67;91.60
46506;BME280;32220;49.808;9.968;2023-11-19T11:26:14;98439.13;;;15.38;91.15
46506;BME280;32220;49.808;9.968;2023-11-19T11:28:50;98450.44;;;15.61;91.72
46506;BME280;32220;49.808;9.968;2023-11-19T11:31:31;98488.16;;;15.97;91.42
46506;BME280;32220;49.808;9.968;2023-11-19T11:34:33;98492.13;;;16.41;90.38
46506;BME280;32220;49.808;9.968;2023-11-19T11:37:11;98484.94;;;18.26;83.96
46506;BME280;32220;49.808;9.968;2023-11-19T11:39:47;98511.34;;;20.69;75.67
46506;BME280;32220;49.808;9.968;2023-11-19T11:42:34;98526.38;;;22.06;65.98
46506;BME280;32220;49.808;9.968;2023-11-19T11:45:04;98534.47;;;22.06;63.34
46506;BME280;32220;49.808;9.968;2023-11-19T11:48:11;98539.13;;;22.74;61.62
46506;BME280;32220;49.808;9.968;2023-11-19T11:50:53;98517.91;;;22.40;61.79
46506;BME280;32220;49.808;9.968;2023-11-19T11:53:22;98530.63;;;22.54;61.35
46506;BME280;32220;49.808;9.968;2023-11-19T11:55:57;98530.63;;;21.93;61.81
46506;BME280;32220;49.808;9.968;2023-11-19T11:58:30;98488.16;;;20.84;62.33
46506;BME280;32220;49.808;9.968;2023-11-19T12:00:59;98492.97;;;20.24;65.28
46506;BME280;32220;49.808;9.968;2023-11-19T12:03:29;98464.97;;;19.42;67.29
46506;BME280;32220;49.808;9.968;2023-11-19T12:05:57;98487.28;;;19.09;69.38
46506;BME280;32220;49.808;9.968;2023-11-19T12:08:27;98468.31;;;18.58;70.55
46506;BME280;32220;49.808;9.968;2023-11-19T12:10:58;98461.50;;;18.28;72.44
46506;BME280;32220;49.808;9.968;2023-11-19T12:13:46;98460.50;;;17.94;73.59
46506;BME280;32220;49.808;9.968;2023-11-19T12:16:15;98450.97;;;17.64;73.91
46506;BME280;32220;49.808;9.968;2023-11-19T12:18:44;98480.84;;;17.59;74.51
46506;BME280;32220;49.808;9.968;2023-11-19T12:21:27;98475.88;;;17.37;76.37
46506;BME280;32220;49.808;9.968;2023-11-19T12:23:55;98431.25;;;17.01;76.23
46506;BME280;32220;49.808;9.968;2023-11-19T12:26:38;98437.41;;;17.11;76.63
46506;BME280;32220;49.808;9.968;2023-11-19T12:29:06;98476.44;;;17.31;76.28
46506;BME280;32220;49.808;9.968;2023-11-19T12:31:34;98476.69;;;19.67;74.03
46506;BME280;32220;49.808;9.968;2023-11-19T12:34:08;98460.47;;;22.54;64.34
46506;BME280;32220;49.808;9.968;2023-11-19T12:36:39;98492.41;;;24.57;57.53
46506;BME280;32220;49.808;9.968;2023-11-19T12:39:07;98525.94;;;24.77;51.37
46506;BME280;32220;49.808;9.968;2023-11-19T12:41:53;98505.63;;;24.66;52.68
46506;BME280;32220;49.808;9.968;2023-11-19T12:44:22;98506.41;;;24.82;49.96
46506;BME280;32220;49.808;9.968;2023-11-19T12:47:00;98502.78;;;24.32;50.50
46506;BME280;32220;49.808;9.968;2023-11-19T12:49:28;98520.97;;;24.59;48.30
46506;BME280;32220;49.808;9.968;2023-11-19T12:51:56;98522.75;;;24.52;49.08
46506;BME280;32220;49.808;9.968;2023-11-19T12:54:34;98494.31;;;23.55;49.58
46506;BME280;32220;49.808;9.968;2023-11-19T12:57:04;98478.28;;;22.41;51.46
46506;BME280;32220;49.808;9.968;2023-11-19T12:59:33;98449.19;;;21.74;54.27
46506;BME280;32220;49.808;9.968;2023-11-19T13:02:00;98482.47;;;21.50;52.86
46506;BME280;32220;49.808;9.968;2023-11-19T13:04:31;98490.50;;;20.95;53.25
46506;BME280;32220;49.808;9.968;2023-11-19T13:07:00;98500.75;;;20.43;54.10
46506;BME280;32220;49.808;9.968;2023-11-19T13:09:30;98469.53;;;19.92;55.95
46506;BME280;32220;49.808;9.968;2023-11-19T13:11:58;98416.97;;;19.39;57.12
46506;BME280;32220;49.808;9.968;2023-11-19T13:14:37;98428.31;;;19.25;57.29
46506;BME280;32220;49.808;9.968;2023-11-19T13:17:06;98460.09;;;19.37;58.62
46506;BME280;32220;49.808;9.968;2023-11-19T13:19:34;98399.72;;;19.08;59.77
46506;BME280;32220;49.808;9.968;2023-11-19T13:22:01;98467.59;;;19.26;58.83
46506;BME280;32220;49.808;9.968;2023-11-19T13:24:30;98441.94;;;18.97;60.39
46506;BME280;32220;49.808;9.968;2023-11-19T13:26:58;98427.38;;;18.56;61.13
46506;BME280;32220;49.808;9.968;2023-11-19T13:29:26;98449.16;;;18.53;61.71
46506;BME280;32220;49.808;9.968;2023-11-19T13:31:55;98415.25;;;18.26;62.69
46506;BME280;32220;49.808;9.968;2023-11-19T13:34:24;98376.97;;;17.99;63.84
46506;BME280;32220;49.808;9.968;2023-11-19T13:36:52;98403.94;;;17.97;64.61
46506;BME280;32220;49.808;9.968;2023-11-19T13:39:20;98389.88;;;17.50;65.05
46506;BME280;32220;49.808;9.968;2023-11-19T13:41:49;98385.44;;;17.31;65.77
46506;BME280;32220;49.808;9.968;2023-11-19T13:44:17;98403.19;;;17.32;65.58
46506;BME280;32220;49.808;9.968;2023-11-19T13:46:45;98424.09;;;17.29;65.56
46506;BME280;32220;49.808;9.968;2023-11-19T13:49:14;98385.69;;;16.83;64.41
46506;BME280;32220;49.808;9.968;2023-11-19T13:51:42;98341.31;;;16.53;64.50
46506;BME280;32220;49.808;9.968;2023-11-19T13:54:10;98348.91;;;16.48;65.54
46506;BME280;32220;49.808;9.968;2023-11-19T13:56:40;98417.25;;;16.60;65.42
46506;BME280;32220;49.808;9.968;2023-11-19T13:59:10;98428.97;;;16.40;63.30
46506;BME280;32220;49.808;9.968;2023-11-19T14:01:38;98429.69;;;16.13;63.38
46506;BME280;32220;49.808;9.968;2023-11-19T14:04:05;98433.63;;;15.99;64.20
46506;BME280;32220;49.808;9.968;2023-11-19T14:06:36;98433.63;;;15.90;64.33
46506;BME280;32220;49.808;9.968;2023-11-19T14:09:06;98428.84;;;15.74;65.28
46506;BME280;32220;49.808;9.968;2023-11-19T14:11:34;98385.38;;;15.53;65.68
46506;BME280;32220;49.808;9.968;2023-11-19T14:14:02;98409.56;;;15.70;65.69
46506;BME280;32220;49.808;9.968;2023-11-19T14:16:30;98410.03;;;16.04;65.01
46506;BME280;32220;49.808;9.968;2023-11-19T14:18:58;98390.59;;;16.22;63.79
46506;BME280;32220;49.808;9.968;2023-11-19T14:21:26;98429.91;;;16.58;62.29
46506;BME280;32220;49.808;9.968;2023-11-19T14:23:55;98419.66;;;17.10;60.48
46506;BME280;32220;49.808;9.968;2023-11-19T14:26:23;98451.84;;;17.55;59.55
46506;BME280;32220;49.808;9.968;2023-11-19T14:28:51;98459.72;;;17.56;58.61
46506;BME280;32220;49.808;9.968;2023-11-19T14:31:19;98439.78;;;17.14;59.18
46506;BME280;32220;49.808;9.968;2023-11-19T14:33:47;98443.16;;;16.79;60.50
46506;BME280;32220;49.808;9.968;2023-11-19T14:36:15;98445.13;;;16.48;61.14
46506;BME280;32220;49.808;9.968;2023-11-19T14:38:43;98463.16;;;16.27;61.44
46506;BME280;32220;49.808;9.968;2023-11-19T14:41:12;98432.22;;;15.95;62.58
46506;BME280;32220;49.808;9.968;2023-11-19T14:43:41;98438.66;;;15.73;63.14
46506;BME280;32220;49.808;9.968;2023-11-19T14:46:08;98432.44;;;15.54;63.78
46506;BME280;32220;49.808;9.968;2023-11-19T14:48:36;98429.56;;;15.36;63.82
46506;BME280;32220;49.808;9.968;2023-11-19T14:51:04;98421.09;;;15.21;64.60
46506;BME280;32220;49.808;9.968;2023-11-19T14:53:32;98421.91;;;15.12;65.20
46506;BME280;32220;49.808;9.968;2023-11-19T14:56:00;98409.78;;;14.98;66.16
46506;BME280;32220;49.808;9.968;2023-11-19T14:58:30;98409.34;;;14.93;66.46
46506;BME280;32220;49.808;9.968;2023-11-19T15:00:57;98418.19;;;14.94;67.34
46506;BME280;32220;49.808;9.968;2023-11-19T15:03:25;98379.59;;;14.58;67.31
46506;BME280;32220;49.808;9.968;2023-11-19T15:05:52;98402.66;;;14.68;67.60
46506;BME280;32220;49.808;9.968;2023-11-19T15:08:20;98382.38;;;14.56;68.16
46506;BME280;32220;49.808;9.968;2023-11-19T15:10:48;98389.19;;;14.49;69.01
46506;BME280;32220;49.808;9.968;2023-11-19T15:13:16;98381.50;;;14.35;69.14
46506;BME280;32220;49.808;9.968;2023-11-19T15:15:45;98385.56;;;14.29;69.60
46506;BME280;32220;49.808;9.968;2023-11-19T15:18:13;98334.09;;;13.87;69.92
46506;BME280;32220;49.808;9.968;2023-11-19T15:20:40;98382.31;;;14.05;69.45
46506;BME280;32220;49.808;9.968;2023-11-19T15:23:08;98363.66;;;13.84;70.06
46506;BME280;32220;49.808;9.968;2023-11-19T15:25:36;98405.47;;;13.93;69.85
46506;BME280;32220;49.808;9.968;2023-11-19T15:28:04;98331.13;;;13.49;69.63
46506;BME280;32220;49.808;9.968;2023-11-19T15:30:31;98381.47;;;13.73;69.90
46506;BME280;32220;49.808;9.968;2023-11-19T15:33:00;98391.31;;;13.72;69.91
46506;BME280;32220;49.808;9.968;2023-11-19T15:35:28;98396.38;;;13.64;70.19
46506;BME280;32220;49.808;9.968;2023-11-19T15:37:56;98415.63;;;13.68;70.57
46506;BME280;32220;49.808;9.968;2023-11-19T15:40:24;98367.13;;;13.32;70.58
46506;BME280;32220;49.808;9.968;2023-11-19T15:42:51;98378.72;;;13.31;70.91
46506;BME280;32220;49.808;9.968;2023-11-19T15:45:21;98408.59;;;13.35;71.54
46506;BME280;32220;49.808;9.968;2023-11-19T15:47:49;98414.25;;;13.30;71.73
46506;BME280;32220;49.808;9.968;2023-11-19T15:50:19;98432.25;;;13.26;71.84
46506;BME280;32220;49.808;9.968;2023-11-19T15:52:46;98430.59;;;13.14;72.33
46506;BME280;32220;49.808;9.968;2023-11-19T15:55:14;98382.00;;;12.79;72.27
46506;BME280;32220;49.808;9.968;2023-11-19T15:57:42;98417.03;;;12.95;72.83
46506;BME280;32220;49.808;9.968;2023-11-19T16:00:10;98379.59;;;12.65;73.22
46506;BME280;32220;49.808;9.968;2023-11-19T16:02:38;98405.69;;;12.82;73.40
46506;BME280;32220;49.808;9.968;2023-11-19T16:05:06;98431.75;;;12.88;73.46
46506;BME280;32220;49.808;9.968;2023-11-19T16:07:36;98405.44;;;12.63;74.09
46506;BME280;32220;49.808;9.968;2023-11-19T16:10:05;98415.81;;;12.66;75.02
46506;BME280;32220;49.808;9.968;2023-11-19T16:12:35;98421.53;;;12.72;75.12
46506;BME280;32220;49.808;9.968;2023-11-19T16:15:03;98417.75;;;12.64;75.26
